Terminal Aerodrome Forecast
Issued by NWS

Home | Current Version | Previous Version | Text Only | Print | Product List | Glossary On
Versions: 1 2 3 4 5 6 7 8 9 10 11 12 13 14 15 16 17 18
000
FTUS44 KCRP 221100
TAFLRD
TAF
KLRD 221121Z 2212/2312 06005KT P6SM OVC070
     FM221700 09012KT P6SM VCSH SCT035 BKN100
     FM222200 09012G18KT P6SM BKN050 OVC100
     FM230600 09004KT P6SM SCT150
      TEMPO 2310/2312 5SM BR=

USA.gov is the U.S. government's official web portal to all federal, state and local government web resources and services.